Time;durP1;ratioP1;P1;durP2;ratioP2;P2;SDS_P1;SDS_P2;PMS_P1;PMS_P2;Temp;Humidity;BMP_temperature;BMP_pressure;BME280_temperature;BME280_humidity;BME280_pressure;Samples;Min_cycle;Max_cycle;Signal;HPM_P1;HPM_P2
2023/05/26 00:02:24;;;;;;;5.07;4.45;;;20.60;52.70;;;;;;5017769;28;20710;-79
2023/05/26 00:04:53;;;;;;;4.53;4.10;;;20.60;52.50;;;;;;4998807;28;20564;-79
2023/05/26 00:07:20;;;;;;;4.75;4.32;;;20.60;52.60;;;;;;4998725;28;20237;-79
2023/05/26 00:09:49;;;;;;;4.90;3.65;;;20.60;52.80;;;;;;4998518;28;20251;-79
2023/05/26 00:12:16;;;;;;;4.72;4.22;;;20.60;52.70;;;;;;4982959;28;20749;-79
2023/05/26 00:14:43;;;;;;;4.60;4.15;;;20.60;52.60;;;;;;4998396;28;20658;-79
2023/05/26 00:17:11;;;;;;;4.47;4.18;;;20.60;52.70;;;;;;4998608;28;20228;-79
2023/05/26 00:19:37;;;;;;;5.05;4.00;;;20.60;52.60;;;;;;4998369;28;20293;-79
2023/05/26 00:22:06;;;;;;;4.65;4.20;;;20.50;52.70;;;;;;5030935;28;20259;-79
2023/05/26 00:24:33;;;;;;;5.13;4.10;;;20.60;52.60;;;;;;5031206;28;20251;-79
2023/05/26 00:27:00;;;;;;;3.83;3.53;;;20.50;52.50;;;;;;4999525;28;20266;-79
2023/05/26 00:29:27;;;;;;;4.65;4.00;;;20.50;52.50;;;;;;5017886;28;20662;-79
2023/05/26 00:31:55;;;;;;;4.20;3.80;;;20.50;52.50;;;;;;4998532;28;20220;-79
2023/05/26 00:34:22;;;;;;;4.40;4.00;;;20.50;52.60;;;;;;5031131;28;20741;-79
2023/05/26 00:36:49;;;;;;;3.80;3.50;;;20.50;52.60;;;;;;4998170;28;20192;-79
2023/05/26 00:39:17;;;;;;;4.50;4.10;;;20.50;52.70;;;;;;4998174;28;20293;-79
2023/05/26 00:41:44;;;;;;;4.25;3.92;;;20.50;52.60;;;;;;4998224;28;20279;-79
2023/05/26 00:44:12;;;;;;;4.20;3.80;;;20.50;52.90;;;;;;4998841;28;20200;-79
2023/05/26 00:46:40;;;;;;;3.88;3.45;;;20.50;52.90;;;;;;4999086;28;20717;-80
2023/05/26 00:49:07;;;;;;;4.43;4.10;;;20.40;52.80;;;;;;4997749;28;20193;-79
2023/05/26 00:51:34;;;;;;;4.30;3.90;;;20.40;52.80;;;;;;4998485;28;20676;-79
2023/05/26 00:54:01;;;;;;;4.88;3.95;;;20.40;52.60;;;;;;4998081;28;20212;-79
2023/05/26 00:56:31;;;;;;;4.20;3.80;;;20.40;52.70;;;;;;4997780;28;20200;-79
2023/05/26 00:58:58;;;;;;;4.60;4.20;;;20.40;52.70;;;;;;4998008;28;20570;-79
2023/05/26 01:01:26;;;;;;;4.40;4.00;;;20.40;52.70;;;;;;4998793;28;20228;-79
2023/05/26 01:03:52;;;;;;;4.45;4.05;;;20.40;53.00;;;;;;4997501;28;20225;-79
2023/05/26 01:06:20;;;;;;;4.15;3.83;;;20.30;52.70;;;;;;4997952;28;20201;-79
2023/05/26 01:08:49;;;;;;;4.57;4.03;;;20.30;52.60;;;;;;4997542;28;20330;-79
2023/05/26 01:11:22;;;;;;;5.10;3.83;;;20.40;52.90;;;;;;4997579;28;20222;-79
2023/05/26 01:13:53;;;;;;;4.30;3.90;;;20.30;52.90;;;;;;4997677;28;20193;-79
2023/05/26 01:16:22;;;;;;;4.25;3.83;;;20.30;52.90;;;;;;4997446;28;20200;-79
2023/05/26 01:18:54;;;;;;;4.25;3.83;;;20.30;52.90;;;;;;4997518;28;20262;-79
2023/05/26 01:21:22;;;;;;;4.32;3.92;;;20.30;52.90;;;;;;4997797;28;20225;-79
2023/05/26 01:24:00;;;;;;;3.95;3.55;;;20.30;52.80;;;;;;4999455;28;20288;-79
2023/05/26 01:26:38;;;;;;;4.38;3.97;;;20.30;52.80;;;;;;4997658;28;20197;-79
2023/05/26 01:29:10;;;;;;;4.38;3.97;;;20.30;52.80;;;;;;5006520;28;20192;-79
2023/05/26 01:31:39;;;;;;;4.35;3.63;;;20.30;53.00;;;;;;5016799;28;20213;-79
2023/05/26 01:34:06;;;;;;;4.50;3.88;;;20.30;52.90;;;;;;5031188;28;20279;-79
2023/05/26 01:36:35;;;;;;;4.22;3.90;;;20.30;52.80;;;;;;4997954;28;20221;-79
2023/05/26 01:39:02;;;;;;;3.97;3.58;;;20.30;52.80;;;;;;4997665;28;20197;-79
2023/05/26 01:41:33;;;;;;;3.97;3.55;;;20.30;52.90;;;;;;4997022;28;20224;-79
2023/05/26 01:44:02;;;;;;;4.40;3.78;;;20.30;52.90;;;;;;4996955;28;20240;-79
2023/05/26 01:46:35;;;;;;;4.07;3.72;;;20.30;52.80;;;;;;4996859;28;20203;-79
2023/05/26 01:49:04;;;;;;;4.40;4.00;;;20.20;52.90;;;;;;4996770;28;20204;-79
2023/05/26 01:51:33;;;;;;;4.45;4.03;;;20.30;52.90;;;;;;4997330;28;20588;-79
2023/05/26 01:54:01;;;;;;;4.40;3.88;;;20.30;52.80;;;;;;4996961;28;20609;-79
2023/05/26 01:56:31;;;;;;;4.45;4.05;;;20.20;52.90;;;;;;4997250;28;20625;-79
2023/05/26 01:58:59;;;;;;;4.50;4.10;;;20.20;52.80;;;;;;4996923;28;20201;-79
2023/05/26 02:01:26;;;;;;;3.80;3.50;;;20.30;52.90;;;;;;5013098;28;20303;-80
2023/05/26 02:03:55;;;;;;;4.30;3.90;;;20.20;53.00;;;;;;4996815;28;20216;-79
2023/05/26 02:06:22;;;;;;;4.18;3.78;;;20.20;52.90;;;;;;4997187;28;20197;-80
2023/05/26 02:08:51;;;;;;;4.55;4.15;;;20.20;52.90;;;;;;4997188;28;20742;-79
2023/05/26 02:11:18;;;;;;;4.20;3.80;;;20.20;53.60;;;;;;4996694;28;20225;-79
2023/05/26 02:13:46;;;;;;;4.20;3.80;;;20.20;52.80;;;;;;4999024;28;20188;-79
2023/05/26 02:16:14;;;;;;;4.22;3.80;;;20.30;53.10;;;;;;5014185;28;20255;-79
2023/05/26 02:18:45;;;;;;;4.50;4.10;;;20.20;53.00;;;;;;5001555;28;20267;-79
2023/05/26 02:21:14;;;;;;;4.22;3.92;;;20.20;52.80;;;;;;4984707;28;20247;-79
2023/05/26 02:23:43;;;;;;;4.07;3.67;;;20.20;52.90;;;;;;5000210;28;20243;-79
2023/05/26 02:26:10;;;;;;;5.28;4.05;;;20.20;52.90;;;;;;4999160;28;20197;-79
2023/05/26 02:28:37;;;;;;;4.22;3.80;;;20.20;52.90;;;;;;4997216;28;20200;-79
2023/05/26 02:31:05;;;;;;;4.80;4.07;;;20.20;52.90;;;;;;4996184;28;20662;-79
2023/05/26 02:33:33;;;;;;;4.38;3.97;;;20.20;52.90;;;;;;4996633;28;20189;-79
2023/05/26 02:36:00;;;;;;;4.78;3.60;;;20.20;52.90;;;;;;4996899;28;20208;-79
2023/05/26 02:38:29;;;;;;;5.10;4.45;;;20.20;52.90;;;;;;4997333;28;20188;-79
2023/05/26 02:40:57;;;;;;;4.32;3.92;;;20.20;53.00;;;;;;4996502;28;20197;-79
2023/05/26 02:43:24;;;;;;;4.07;3.67;;;20.20;53.00;;;;;;5013685;28;20593;-79
2023/05/26 02:45:51;;;;;;;4.28;3.88;;;20.20;53.10;;;;;;4996481;28;20287;-79
2023/05/26 02:48:18;;;;;;;5.22;4.35;;;20.20;53.00;;;;;;4996265;28;20205;-79
2023/05/26 02:50:46;;;;;;;4.10;3.80;;;20.20;52.90;;;;;;5029347;28;20200;-79
2023/05/26 02:53:14;;;;;;;4.40;4.00;;;20.20;52.90;;;;;;4980780;28;20651;-79
2023/05/26 02:55:44;;;;;;;4.40;4.00;;;20.10;52.80;;;;;;5013344;28;20285;-77
2023/05/26 02:58:12;;;;;;;4.20;3.80;;;20.10;52.90;;;;;;4996298;28;20201;-78
2023/05/26 03:00:39;;;;;;;4.32;3.92;;;20.20;53.00;;;;;;4996469;28;20212;-78
2023/05/26 03:03:06;;;;;;;4.68;4.10;;;20.10;52.90;;;;;;4996337;28;20299;-78
2023/05/26 03:05:33;;;;;;;4.13;3.60;;;20.10;52.90;;;;;;5028954;28;20204;-78
2023/05/26 03:08:03;;;;;;;4.32;3.90;;;20.10;52.80;;;;;;4996867;28;20201;-79
2023/05/26 03:10:30;;;;;;;3.72;3.42;;;20.10;52.80;;;;;;4997033;28;20197;-79
2023/05/26 03:12:59;;;;;;;4.53;4.13;;;20.10;52.90;;;;;;5001262;28;20224;-78
2023/05/26 03:15:27;;;;;;;4.50;4.00;;;20.10;53.10;;;;;;5033746;28;20254;-79
2023/05/26 03:17:54;;;;;;;4.15;3.72;;;20.10;53.10;;;;;;5000416;28;20199;-79
2023/05/26 03:20:21;;;;;;;4.05;3.65;;;20.10;53.10;;;;;;5000536;28;20201;-79
2023/05/26 03:22:49;;;;;;;3.92;3.53;;;20.10;53.40;;;;;;5000618;28;20774;-79
2023/05/26 03:25:16;;;;;;;4.22;3.85;;;20.20;53.50;;;;;;5001240;28;20212;-79
2023/05/26 03:27:47;;;;;;;3.80;3.50;;;20.20;53.30;;;;;;5019093;28;20200;-79
2023/05/26 03:30:16;;;;;;;4.32;3.78;;;20.20;53.30;;;;;;5003432;28;20710;-79
2023/05/26 03:32:45;;;;;;;4.03;3.45;;;20.30;53.30;;;;;;5003706;28;20259;-80
2023/05/26 03:35:13;;;;;;;4.45;3.70;;;20.30;53.20;;;;;;5003081;28;20200;-80
2023/05/26 03:37:40;;;;;;;3.53;3.22;;;20.30;53.00;;;;;;5002542;28;20201;-79
2023/05/26 03:40:10;;;;;;;4.07;3.67;;;20.40;53.00;;;;;;5001925;28;20699;-79
2023/05/26 03:42:38;;;;;;;3.80;3.50;;;20.40;52.90;;;;;;5004340;28;20270;-79
2023/05/26 03:45:06;;;;;;;4.93;3.78;;;20.40;52.90;;;;;;5005825;28;20196;-79
2023/05/26 03:47:35;;;;;;;4.35;3.95;;;20.40;52.70;;;;;;5038608;28;20209;-79
2023/05/26 03:50:02;;;;;;;3.63;3.33;;;20.40;52.50;;;;;;4986302;28;20315;-79
2023/05/26 03:52:30;;;;;;;4.50;4.10;;;20.50;52.80;;;;;;5033317;28;20221;-79
2023/05/26 03:54:57;;;;;;;4.30;3.90;;;20.50;52.50;;;;;;5000325;28;20682;-79
2023/05/26 03:57:25;;;;;;;4.13;3.70;;;20.50;52.50;;;;;;5000475;28;20323;-79
2023/05/26 03:59:53;;;;;;;4.30;3.90;;;20.50;52.30;;;;;;5032911;28;20284;-79
2023/05/26 04:02:20;;;;;;;3.90;3.58;;;20.50;52.30;;;;;;4999329;28;20217;-79
2023/05/26 04:04:49;;;;;;;3.95;3.65;;;20.50;52.40;;;;;;4999068;28;20215;-79
2023/05/26 04:07:17;;;;;;;4.20;3.80;;;20.50;52.30;;;;;;5001205;28;20201;-79
2023/05/26 04:09:45;;;;;;;4.15;3.72;;;20.50;52.10;;;;;;5019121;28;20205;-79
2023/05/26 04:12:12;;;;;;;4.32;3.92;;;20.50;52.10;;;;;;5003383;28;20725;-79
2023/05/26 04:14:39;;;;;;;4.80;3.78;;;20.50;52.10;;;;;;5002427;28;20197;-79
2023/05/26 04:17:06;;;;;;;4.35;3.80;;;20.50;52.30;;;;;;4999425;28;20689;-79
2023/05/26 04:19:33;;;;;;;4.88;3.83;;;20.50;52.10;;;;;;5032394;28;20204;-79
2023/05/26 04:22:01;;;;;;;4.03;3.63;;;20.60;52.30;;;;;;4999051;28;20213;-79
2023/05/26 04:24:29;;;;;;;4.15;3.75;;;20.50;52.10;;;;;;4998520;28;20228;-79
2023/05/26 04:26:57;;;;;;;3.97;3.58;;;20.50;52.10;;;;;;5000029;28;20227;-79
2023/05/26 04:29:50;;;;;;;4.30;3.90;;;20.60;52.00;;;;;;5022872;28;20214;-80
2023/05/26 04:32:37;;;;;;;4.25;3.85;;;20.60;52.10;;;;;;5020234;28;20225;-79
2023/05/26 04:35:24;;;;;;;4.20;3.80;;;20.60;52.10;;;;;;5018387;28;20649;-79
2023/05/26 04:37:54;;;;;;;4.30;3.72;;;20.60;52.20;;;;;;5005728;28;20223;-79
2023/05/26 04:40:23;;;;;;;4.03;3.72;;;20.60;52.30;;;;;;5022443;28;20189;-78
2023/05/26 04:42:50;;;;;;;4.07;3.67;;;20.60;52.30;;;;;;5020745;28;20197;-78
2023/05/26 04:45:17;;;;;;;4.47;4.07;;;20.70;52.40;;;;;;5030835;28;20701;-81
2023/05/26 04:47:49;;;;;;;4.55;3.95;;;20.70;52.40;;;;;;4997981;28;20216;-79
2023/05/26 04:50:16;;;;;;;3.88;3.45;;;20.80;52.30;;;;;;4997906;28;20672;-78
2023/05/26 04:52:43;;;;;;;4.30;3.90;;;20.90;51.90;;;;;;5030588;28;20765;-78
2023/05/26 04:55:12;;;;;;;4.85;4.05;;;20.90;51.50;;;;;;4997755;28;20196;-79
2023/05/26 04:57:40;;;;;;;4.82;4.15;;;21.00;51.30;;;;;;4998070;28;20553;-79
2023/05/26 05:00:09;;;;;;;6.00;4.68;;;21.10;51.10;;;;;;4998098;28;20232;-79
2023/05/26 05:02:37;;;;;;;3.95;3.47;;;21.10;51.30;;;;;;4982274;28;20278;-79
2023/05/26 05:05:11;;;;;;;4.20;3.80;;;21.20;51.20;;;;;;4998642;28;20296;-79
2023/05/26 05:07:38;;;;;;;4.88;4.32;;;21.30;51.00;;;;;;4997662;28;20287;-79
2023/05/26 05:10:06;;;;;;;4.55;4.10;;;21.40;51.10;;;;;;4997449;28;20228;-78
2023/05/26 05:12:36;;;;;;;5.03;4.15;;;21.50;50.80;;;;;;4997615;28;20308;-78
2023/05/26 05:15:06;;;;;;;4.93;4.35;;;21.70;50.80;;;;;;4998436;28;20239;-77
2023/05/26 05:17:34;;;;;;;5.22;3.88;;;21.70;50.90;;;;;;5030112;28;20573;-77
2023/05/26 05:20:01;;;;;;;4.95;3.97;;;21.90;51.10;;;;;;4997332;28;20677;-77
2023/05/26 05:22:30;;;;;;;5.63;4.10;;;22.00;50.90;;;;;;4997275;28;20221;-77
2023/05/26 05:24:57;;;;;;;5.05;3.70;;;22.10;50.50;;;;;;4997040;28;20259;-77
2023/05/26 05:27:25;;;;;;;4.32;3.92;;;22.20;50.40;;;;;;4997266;28;20569;-77
2023/05/26 05:29:53;;;;;;;4.53;4.13;;;22.30;50.20;;;;;;4996932;28;20219;-77
2023/05/26 05:32:20;;;;;;;4.78;4.38;;;22.40;49.90;;;;;;4996715;28;20647;-77
2023/05/26 05:34:49;;;;;;;4.30;3.90;;;22.60;50.40;;;;;;4996880;28;20251;-77
2023/05/26 05:37:16;;;;;;;4.47;4.07;;;22.70;49.60;;;;;;4996697;28;20208;-77
2023/05/26 05:39:43;;;;;;;4.60;4.20;;;22.70;49.30;;;;;;4996897;28;20203;-77
2023/05/26 05:42:10;;;;;;;5.45;4.00;;;22.80;49.10;;;;;;4996854;28;20216;-77
2023/05/26 05:44:37;;;;;;;6.60;4.53;;;22.90;48.90;;;;;;4997135;28;20291;-77
2023/05/26 05:47:06;;;;;;;6.03;4.47;;;23.00;48.60;;;;;;4981065;28;20666;-77
2023/05/26 05:49:47;;;;;;;5.15;4.47;;;23.10;48.30;;;;;;4997354;28;20207;-77
2023/05/26 05:52:15;;;;;;;4.60;4.20;;;23.20;48.10;;;;;;4997156;28;20581;-77
2023/05/26 05:54:42;;;;;;;7.30;4.47;;;23.30;47.90;;;;;;4997474;28;20197;-77
2023/05/26 05:57:09;;;;;;;5.35;3.97;;;23.40;47.70;;;;;;4996979;28;20200;-77
2023/05/26 05:59:37;;;;;;;4.63;4.18;;;23.40;47.50;;;;;;4996737;28;20243;-77
2023/05/26 06:02:06;;;;;;;6.50;4.30;;;23.50;47.50;;;;;;4997122;28;20312;-77
2023/05/26 06:04:33;;;;;;;5.68;4.25;;;23.60;47.30;;;;;;5005370;28;20220;-77
2023/05/26 06:07:00;;;;;;;4.57;3.88;;;23.60;47.10;;;;;;5041194;28;20197;-78
2023/05/26 06:09:28;;;;;;;4.07;3.40;;;23.70;47.00;;;;;;5002338;28;20566;-78
2023/05/26 06:11:55;;;;;;;4.15;3.60;;;23.80;47.00;;;;;;5013938;28;20217;-78
2023/05/26 06:14:22;;;;;;;4.07;3.70;;;23.80;46.80;;;;;;5030093;28;20192;-78
2023/05/26 06:16:49;;;;;;;4.28;3.40;;;23.90;46.70;;;;;;5030631;28;20230;-78
2023/05/26 06:19:18;;;;;;;4.90;3.78;;;24.00;46.70;;;;;;5014317;28;20659;-78
2023/05/26 06:21:47;;;;;;;3.47;3.15;;;24.10;46.60;;;;;;4996448;28;20462;-78
2023/05/26 06:24:14;;;;;;;4.18;3.75;;;24.10;46.50;;;;;;4996793;28;20729;-78
2023/05/26 06:26:41;;;;;;;4.82;3.17;;;24.20;46.40;;;;;;4996513;28;20220;-78
2023/05/26 06:29:10;;;;;;;3.97;3.60;;;24.20;46.20;;;;;;4996380;28;20203;-78
2023/05/26 06:31:37;;;;;;;3.90;3.60;;;24.30;46.20;;;;;;4996455;28;20220;-76
2023/05/26 06:34:15;;;;;;;4.30;3.90;;;24.40;46.10;;;;;;5029164;28;20192;-76
2023/05/26 06:36:44;;;;;;;4.47;3.22;;;24.40;45.90;;;;;;4996531;28;20543;-76
2023/05/26 06:39:11;;;;;;;3.45;3.15;;;24.50;45.80;;;;;;5028848;28;20674;-76
2023/05/26 06:41:38;;;;;;;3.67;3.38;;;24.60;45.60;;;;;;4996177;28;20223;-76
2023/05/26 06:44:05;;;;;;;4.05;3.35;;;24.70;45.60;;;;;;4996303;28;20220;-76
2023/05/26 06:46:33;;;;;;;4.70;3.40;;;24.70;45.30;;;;;;5012747;28;20217;-76
2023/05/26 06:49:00;;;;;;;4.30;3.30;;;24.80;45.30;;;;;;4999577;28;20281;-76
2023/05/26 06:51:49;;;;;;;3.53;3.20;;;24.90;45.10;;;;;;5017875;28;20243;-76
2023/05/26 06:54:17;;;;;;;3.55;3.20;;;24.90;45.10;;;;;;5000082;28;20283;-76
2023/05/26 06:56:45;;;;;;;3.58;3.28;;;25.00;45.00;;;;;;5000824;28;20200;-76
2023/05/26 06:59:12;;;;;;;3.75;3.45;;;25.10;44.90;;;;;;5000117;28;20264;-76
2023/05/26 07:01:40;;;;;;;3.58;3.28;;;25.10;44.70;;;;;;5000573;28;20271;-76
2023/05/26 07:04:07;;;;;;;4.18;3.42;;;25.20;44.60;;;;;;5000162;28;20220;-76
2023/05/26 07:06:35;;;;;;;3.35;3.05;;;25.20;44.40;;;;;;5000243;28;20235;-76
2023/05/26 07:09:04;;;;;;;3.38;3.08;;;25.30;44.30;;;;;;4999635;28;20193;-76
2023/05/26 07:11:37;;;;;;;3.45;3.15;;;25.40;44.30;;;;;;5017232;28;20213;-76
2023/05/26 07:14:11;;;;;;;3.67;3.38;;;25.40;44.20;;;;;;4999935;28;20639;-76
2023/05/26 07:16:39;;;;;;;3.47;3.08;;;25.40;44.00;;;;;;4999579;28;20208;-76
2023/05/26 07:19:06;;;;;;;3.47;3.17;;;25.50;44.00;;;;;;5000298;28;20227;-76
2023/05/26 07:21:35;;;;;;;3.58;3.28;;;25.60;44.00;;;;;;4999570;28;20227;-76
2023/05/26 07:24:05;;;;;;;3.75;3.45;;;25.60;43.80;;;;;;4999170;28;20197;-76
2023/05/26 07:26:32;;;;;;;4.45;3.35;;;25.60;43.80;;;;;;4983648;28;20208;-76
2023/05/26 07:28:59;;;;;;;3.63;3.33;;;25.70;43.70;;;;;;5000458;28;20235;-76
2023/05/26 07:31:28;;;;;;;3.58;3.28;;;25.70;43.60;;;;;;5000175;28;20235;-76
2023/05/26 07:33:55;;;;;;;3.78;3.40;;;25.70;43.50;;;;;;5000646;28;20203;-76
2023/05/26 07:36:24;;;;;;;3.80;3.40;;;25.80;43.50;;;;;;4999704;28;20196;-76
2023/05/26 07:38:51;;;;;;;3.55;3.25;;;25.90;43.50;;;;;;5000258;28;20197;-76
2023/05/26 07:41:21;;;;;;;3.70;3.28;;;25.90;43.40;;;;;;5000112;28;20224;-77
2023/05/26 07:43:48;;;;;;;3.55;3.13;;;25.90;43.30;;;;;;5033529;28;20208;-77
2023/05/26 07:46:15;;;;;;;3.85;3.45;;;25.90;43.20;;;;;;5000849;28;20225;-77
2023/05/26 07:48:43;;;;;;;3.63;3.33;;;26.00;43.20;;;;;;5000617;28;20650;-77
2023/05/26 07:51:09;;;;;;;3.20;3.00;;;26.00;43.10;;;;;;5016840;28;20227;-77
2023/05/26 07:53:37;;;;;;;3.42;3.13;;;26.00;43.00;;;;;;5000916;28;20701;-77
2023/05/26 07:56:04;;;;;;;3.25;2.95;;;26.00;43.00;;;;;;5001980;28;20196;-77
2023/05/26 07:58:35;;;;;;;3.47;3.17;;;26.10;43.00;;;;;;5015250;28;20284;-77
2023/05/26 08:01:02;;;;;;;3.95;3.40;;;26.10;42.90;;;;;;5023122;28;20198;-76
2023/05/26 08:03:29;;;;;;;3.42;3.13;;;26.10;42.90;;;;;;5038936;28;20191;-76
2023/05/26 08:05:56;;;;;;;3.50;3.20;;;26.10;42.80;;;;;;4998432;28;20252;-76
2023/05/26 08:08:24;;;;;;;3.45;3.17;;;26.20;42.90;;;;;;4998487;28;20205;-76
2023/05/26 08:10:51;;;;;;;3.83;3.40;;;26.10;42.80;;;;;;4999139;28;20581;-76
2023/05/26 08:13:18;;;;;;;3.58;3.28;;;26.20;42.80;;;;;;5031380;28;20196;-76
2023/05/26 08:15:47;;;;;;;4.25;3.30;;;26.20;42.70;;;;;;4998555;28;20197;-76
2023/05/26 08:18:15;;;;;;;4.15;3.25;;;26.20;42.60;;;;;;4999445;28;20270;-76
2023/05/26 08:20:42;;;;;;;3.72;3.42;;;26.20;42.50;;;;;;4998530;28;20572;-76
2023/05/26 08:23:09;;;;;;;3.50;3.20;;;26.20;42.40;;;;;;5031580;28;20232;-76
2023/05/26 08:25:36;;;;;;;3.50;3.15;;;26.30;42.40;;;;;;4999333;28;20231;-76
2023/05/26 08:28:03;;;;;;;3.70;3.40;;;26.30;42.40;;;;;;5015378;28;20208;-76
2023/05/26 08:30:30;;;;;;;3.78;3.25;;;26.30;42.30;;;;;;4998448;28;20555;-76
2023/05/26 08:32:58;;;;;;;4.13;3.70;;;26.30;42.30;;;;;;4998202;28;20714;-76
2023/05/26 08:35:28;;;;;;;4.15;3.28;;;26.30;42.10;;;;;;4998366;28;20196;-76
2023/05/26 08:37:54;;;;;;;3.80;3.50;;;26.40;42.10;;;;;;5030812;28;20310;-76
2023/05/26 08:40:22;;;;;;;3.60;3.30;;;26.40;42.00;;;;;;4998169;28;20237;-76
2023/05/26 08:42:52;;;;;;;4.10;3.35;;;26.40;41.90;;;;;;5003606;28;20204;-76
2023/05/26 08:45:20;;;;;;;3.40;3.10;;;26.50;41.80;;;;;;5032610;28;20305;-76
2023/05/26 08:47:47;;;;;;;3.72;3.25;;;26.50;41.80;;;;;;4997884;28;20244;-76
2023/05/26 08:50:16;;;;;;;3.67;3.38;;;26.50;41.70;;;;;;4998626;28;20208;-76
2023/05/26 08:52:44;;;;;;;3.55;3.08;;;26.60;41.70;;;;;;4997907;28;20220;-76
2023/05/26 08:55:11;;;;;;;3.33;3.03;;;26.60;41.60;;;;;;4997548;28;20196;-76
2023/05/26 08:57:38;;;;;;;3.80;3.50;;;26.60;41.60;;;;;;4997503;28;20195;-77
2023/05/26 09:00:08;;;;;;;3.60;3.30;;;26.60;41.60;;;;;;4997574;28;20199;-78
2023/05/26 09:02:36;;;;;;;4.30;3.40;;;26.60;41.60;;;;;;5014626;28;20672;-77
2023/05/26 09:05:03;;;;;;;3.45;3.15;;;26.60;41.60;;;;;;5013781;28;20596;-77
2023/05/26 09:07:31;;;;;;;3.20;3.00;;;26.60;41.50;;;;;;4998180;28;20540;-77
2023/05/26 09:10:03;;;;;;;3.75;3.35;;;26.70;41.40;;;;;;4997154;28;20299;-77
2023/05/26 09:12:36;;;;;;;3.80;3.40;;;26.60;41.40;;;;;;4997124;28;20259;-77
2023/05/26 09:15:03;;;;;;;3.50;3.20;;;26.70;41.40;;;;;;5013810;28;20196;-77
2023/05/26 09:17:33;;;;;;;3.38;3.10;;;26.60;41.30;;;;;;4997530;28;20200;-77
2023/05/26 09:20:01;;;;;;;3.53;3.17;;;26.70;41.40;;;;;;4997275;28;20250;-77
2023/05/26 09:22:34;;;;;;;3.72;3.42;;;26.60;41.30;;;;;;4996970;28;20228;-77
2023/05/26 09:25:01;;;;;;;3.60;3.30;;;26.70;41.40;;;;;;5013826;28;20223;-77
2023/05/26 09:27:28;;;;;;;3.70;3.30;;;26.60;41.30;;;;;;5030176;28;20196;-77
2023/05/26 09:29:57;;;;;;;3.85;3.28;;;26.60;41.40;;;;;;5013861;28;20677;-77
2023/05/26 09:32:25;;;;;;;3.25;2.95;;;26.60;41.60;;;;;;4997187;28;20254;-77
2023/05/26 09:34:53;;;;;;;3.75;3.38;;;26.50;41.60;;;;;;4981046;28;20624;-77
2023/05/26 09:37:28;;;;;;;3.70;3.40;;;26.50;41.60;;;;;;4997995;28;20235;-77
2023/05/26 09:39:57;;;;;;;3.60;3.30;;;26.50;41.60;;;;;;4997519;28;20274;-77
2023/05/26 09:42:24;;;;;;;3.58;3.28;;;26.50;41.60;;;;;;4997176;28;20216;-78
2023/05/26 09:44:51;;;;;;;3.65;3.35;;;26.50;41.60;;;;;;4996894;28;20266;-78
2023/05/26 09:47:21;;;;;;;3.42;3.13;;;26.50;41.60;;;;;;4996406;28;20674;-78
2023/05/26 09:49:48;;;;;;;3.88;3.30;;;26.40;41.50;;;;;;4996813;28;20282;-78
2023/05/26 09:52:15;;;;;;;3.30;3.00;;;26.50;41.70;;;;;;5029448;28;20218;-78
2023/05/26 09:54:42;;;;;;;4.00;3.30;;;26.40;41.70;;;;;;4980951;28;20199;-78
2023/05/26 09:57:11;;;;;;;3.75;3.28;;;26.40;41.80;;;;;;4996757;28;20200;-78
2023/05/26 09:59:40;;;;;;;3.60;3.30;;;26.30;41.80;;;;;;4996692;28;20235;-78
2023/05/26 10:02:11;;;;;;;4.00;3.40;;;26.30;41.90;;;;;;5007762;28;20240;-78
2023/05/26 10:04:38;;;;;;;3.13;2.92;;;26.30;42.00;;;;;;4997450;28;20620;-78
2023/05/26 10:07:08;;;;;;;3.60;3.30;;;26.30;42.10;;;;;;4997059;28;20184;-78
2023/05/26 10:09:35;;;;;;;3.65;3.35;;;26.20;42.10;;;;;;5014377;28;20556;-78
2023/05/26 10:12:02;;;;;;;3.42;3.13;;;26.20;42.10;;;;;;4996512;28;20221;-77
2023/05/26 10:14:30;;;;;;;3.75;3.45;;;26.20;42.10;;;;;;4996847;28;20201;-77
2023/05/26 10:16:57;;;;;;;3.72;3.42;;;26.20;42.30;;;;;;4996808;28;20195;-77
2023/05/26 10:19:25;;;;;;;3.55;3.25;;;26.20;42.30;;;;;;4996963;28;20204;-78
2023/05/26 10:21:53;;;;;;;3.55;3.25;;;26.10;42.30;;;;;;4996927;28;20223;-78
2023/05/26 10:24:24;;;;;;;3.38;3.08;;;26.10;42.40;;;;;;5000604;28;20287;-78
2023/05/26 10:26:55;;;;;;;3.63;3.00;;;26.10;42.50;;;;;;5033674;28;20240;-77
2023/05/26 10:29:35;;;;;;;3.63;3.33;;;26.10;42.50;;;;;;5000743;28;20612;-77
2023/05/26 10:32:04;;;;;;;3.95;3.58;;;26.10;42.60;;;;;;5034157;28;20567;-78
2023/05/26 10:34:38;;;;;;;3.40;3.10;;;26.00;42.60;;;;;;5001476;28;20650;-77
2023/05/26 10:37:13;;;;;;;3.65;3.35;;;26.00;42.70;;;;;;5035278;28;20200;-78
2023/05/26 10:39:40;;;;;;;3.80;3.50;;;25.90;42.70;;;;;;5008340;28;20176;-78
2023/05/26 10:42:16;;;;;;;3.08;2.88;;;25.90;42.80;;;;;;5001750;28;20640;-78
2023/05/26 10:44:44;;;;;;;3.78;3.47;;;25.90;42.90;;;;;;5001001;28;20188;-77
2023/05/26 10:47:15;;;;;;;4.45;3.42;;;25.90;43.00;;;;;;5080030;22;20315;-78
2023/05/26 10:49:43;;;;;;;3.78;3.33;;;25.80;43.00;;;;;;5000312;28;20592;-76
2023/05/26 10:52:14;;;;;;;3.80;3.50;;;25.80;43.10;;;;;;5000155;28;20754;-76
2023/05/26 10:54:42;;;;;;;3.50;3.20;;;25.80;43.20;;;;;;5000149;28;20196;-76
2023/05/26 10:57:28;;;;;;;3.60;3.30;;;25.70;43.30;;;;;;4999998;28;20255;-76
2023/05/26 10:59:56;;;;;;;3.70;3.40;;;25.70;43.40;;;;;;4999709;28;20200;-75
2023/05/26 11:02:24;;;;;;;3.78;3.47;;;25.60;43.60;;;;;;4999616;28;20641;-75
2023/05/26 11:04:52;;;;;;;3.70;3.40;;;25.50;43.70;;;;;;4999483;28;20702;-76
2023/05/26 11:07:22;;;;;;;4.40;3.28;;;25.50;43.90;;;;;;4999776;28;20244;-75
2023/05/26 11:09:59;;;;;;;3.75;3.22;;;25.40;44.00;;;;;;5017115;28;20172;-75
2023/05/26 11:12:28;;;;;;;3.45;3.17;;;25.40;44.20;;;;;;4999963;28;20714;-75
2023/05/26 11:14:55;;;;;;;3.50;3.20;;;25.30;44.20;;;;;;5001024;28;20208;-75
2023/05/26 11:17:22;;;;;;;3.42;3.13;;;25.30;44.30;;;;;;4999444;28;20220;-75
2023/05/26 11:19:58;;;;;;;3.63;3.33;;;25.20;44.40;;;;;;5002809;28;20647;-75
2023/05/26 11:22:26;;;;;;;4.07;3.67;;;25.20;44.50;;;;;;5006505;28;20227;-75
2023/05/26 11:24:53;;;;;;;3.33;3.03;;;25.20;44.60;;;;;;5000079;28;20201;-76
2023/05/26 11:27:24;;;;;;;3.63;3.20;;;25.20;44.60;;;;;;4999307;28;20217;-76
2023/05/26 11:29:59;;;;;;;3.60;3.30;;;25.10;44.70;;;;;;4999476;28;20200;-76
2023/05/26 11:32:27;;;;;;;3.22;2.92;;;25.20;44.70;;;;;;4999156;28;20694;-76
2023/05/26 11:34:55;;;;;;;3.50;3.20;;;25.10;44.70;;;;;;4998828;28;20723;-76
2023/05/26 11:37:25;;;;;;;3.50;3.20;;;25.10;44.80;;;;;;4998950;28;20193;-76
2023/05/26 11:39:52;;;;;;;3.42;3.13;;;25.10;44.80;;;;;;4999032;28;20197;-75
2023/05/26 11:42:19;;;;;;;3.40;3.20;;;25.10;44.80;;;;;;4999281;28;20224;-75
2023/05/26 11:44:46;;;;;;;3.58;3.28;;;25.10;44.80;;;;;;4998899;28;20200;-75
2023/05/26 11:47:14;;;;;;;3.70;3.40;;;25.10;44.80;;;;;;4998469;28;20220;-75
2023/05/26 11:49:47;;;;;;;3.50;3.20;;;25.10;44.90;;;;;;4998790;28;20193;-75
2023/05/26 11:52:16;;;;;;;3.65;3.35;;;25.20;44.90;;;;;;4998905;28;20224;-75
2023/05/26 11:54:44;;;;;;;3.55;3.25;;;25.10;44.80;;;;;;4999003;28;20292;-75
2023/05/26 11:57:24;;;;;;;3.70;3.40;;;25.20;44.90;;;;;;4998759;28;20201;-75
2023/05/26 11:59:53;;;;;;;3.42;3.20;;;25.10;44.90;;;;;;4998860;28;20200;-75
2023/05/26 12:02:20;;;;;;;3.42;3.20;;;25.10;44.90;;;;;;4998761;28;20842;-75
2023/05/26 12:04:47;;;;;;;3.58;3.28;;;25.10;44.90;;;;;;4998978;28;20243;-75
2023/05/26 12:07:25;;;;;;;3.70;3.40;;;25.10;45.00;;;;;;4998511;28;20216;-75
2023/05/26 12:10:04;;;;;;;3.70;3.40;;;25.10;45.00;;;;;;4998221;28;20204;-75
2023/05/26 12:12:33;;;;;;;3.83;3.42;;;25.10;45.00;;;;;;4998432;28;20274;-75
2023/05/26 12:15:05;;;;;;;3.72;3.33;;;25.10;45.10;;;;;;4998352;28;20550;-75
2023/05/26 12:17:32;;;;;;;3.63;3.33;;;25.10;45.00;;;;;;4998319;28;20644;-75
2023/05/26 12:19:59;;;;;;;3.53;3.22;;;25.10;45.10;;;;;;4998244;28;20201;-75
2023/05/26 12:22:28;;;;;;;3.50;3.20;;;25.10;45.10;;;;;;4998003;28;20231;-75
2023/05/26 12:24:58;;;;;;;3.10;2.90;;;25.10;45.10;;;;;;4998635;28;20204;-75
2023/05/26 12:27:35;;;;;;;3.80;3.50;;;25.10;45.10;;;;;;4997950;28;20223;-75
2023/05/26 12:30:16;;;;;;;3.88;3.28;;;25.10;45.10;;;;;;4998067;28;20212;-75
2023/05/26 12:32:43;;;;;;;4.10;3.70;;;25.10;45.20;;;;;;4998018;28;20226;-75
2023/05/26 12:35:10;;;;;;;3.42;3.22;;;25.10;45.20;;;;;;4997904;28;20200;-75
2023/05/26 12:37:37;;;;;;;3.13;2.90;;;25.10;45.20;;;;;;4998178;28;20204;-75
2023/05/26 12:40:05;;;;;;;3.55;3.25;;;25.10;45.20;;;;;;4998146;28;20247;-75
2023/05/26 12:42:33;;;;;;;3.70;3.40;;;25.10;45.20;;;;;;4997999;28;20216;-75
2023/05/26 12:45:01;;;;;;;3.30;3.03;;;25.20;45.20;;;;;;4998056;28;20200;-75
2023/05/26 12:47:28;;;;;;;3.40;3.10;;;25.20;45.10;;;;;;4997726;28;20638;-74
2023/05/26 12:49:55;;;;;;;3.60;3.30;;;25.20;45.10;;;;;;4998293;28;20193;-74
2023/05/26 12:52:22;;;;;;;3.53;3.22;;;25.20;45.10;;;;;;4999104;28;20224;-74
2023/05/26 12:54:49;;;;;;;3.80;3.50;;;25.20;45.10;;;;;;4999220;28;20220;-75
2023/05/26 12:57:17;;;;;;;3.45;3.15;;;25.20;45.10;;;;;;4998514;28;20193;-75